createdAt,value
2018-06-11T00:01:45.108Z,99634.00
2018-06-11T00:04:25.860Z,99638.00
2018-06-11T00:07:06.937Z,99646.00
2018-06-11T00:09:47.974Z,99649.00
2018-06-11T00:12:28.773Z,99649.00
2018-06-11T00:15:09.225Z,99650.00
2018-06-11T00:17:49.548Z,99650.00
2018-06-11T00:20:29.878Z,99646.00
2018-06-11T00:23:10.298Z,99641.00
2018-06-11T00:25:51.138Z,99649.00
2018-06-11T00:28:32.360Z,99650.00
2018-06-11T00:31:13.329Z,99644.00
2018-06-11T00:33:54.060Z,99648.00
2018-06-11T00:36:34.949Z,99654.00
2018-06-11T00:39:17.621Z,99662.00
2018-06-11T00:41:57.924Z,99661.00
2018-06-11T00:44:38.380Z,99659.00
2018-06-11T00:47:18.691Z,99660.00
2018-06-11T00:49:59.878Z,99664.00
2018-06-11T00:52:41.197Z,99666.00
2018-06-11T00:55:22.345Z,99668.00
2018-06-11T00:58:02.936Z,99670.00
2018-06-11T01:00:43.071Z,99673.00
2018-06-11T01:03:23.348Z,99670.00
2018-06-11T01:06:04.562Z,99666.00
2018-06-11T01:08:44.868Z,99662.00
2018-06-11T01:11:26.716Z,99661.00
2018-06-11T01:14:07.399Z,99668.00
2018-06-11T01:16:48.046Z,99668.00
2018-06-11T01:19:28.715Z,99664.00
2018-06-11T01:22:09.509Z,99664.00
2018-06-11T01:24:49.939Z,99661.00
2018-06-11T01:27:30.435Z,99666.00
2018-06-11T01:30:11.184Z,99665.00
2018-06-11T01:32:51.517Z,99669.00
2018-06-11T01:35:31.877Z,99666.00
2018-06-11T01:38:12.568Z,99661.00
2018-06-11T01:40:52.927Z,99657.00
2018-06-11T01:43:33.426Z,99663.00
2018-06-11T01:46:14.260Z,99656.00
2018-06-11T01:48:55.021Z,99652.00
2018-06-11T01:51:35.358Z,99647.00
2018-06-11T01:54:15.800Z,99642.00
2018-06-11T01:56:56.200Z,99650.00
2018-06-11T01:59:37.080Z,99638.00
2018-06-11T02:02:17.718Z,99642.00
2018-06-11T02:04:58.745Z,99647.00
2018-06-11T02:07:39.300Z,99658.00
2018-06-11T02:10:20.151Z,99657.00
2018-06-11T02:13:00.567Z,99668.00
2018-06-11T02:15:40.886Z,99664.00
2018-06-11T02:18:21.528Z,99664.00
2018-06-11T02:21:02.005Z,99667.00
2018-06-11T02:23:42.688Z,99668.00
2018-06-11T02:26:23.905Z,99664.00
2018-06-11T02:29:04.583Z,99658.00
2018-06-11T02:31:44.928Z,99663.00
2018-06-11T02:34:25.605Z,99665.00
2018-06-11T02:37:06.477Z,99661.00
2018-06-11T02:39:47.380Z,99660.00
2018-06-11T02:42:28.217Z,99657.00
2018-06-11T02:45:08.564Z,99661.00
2018-06-11T02:47:49.013Z,99666.00
2018-06-11T02:50:29.896Z,99663.00
2018-06-11T02:53:10.725Z,99660.00
2018-06-11T02:55:51.532Z,99664.00
2018-06-11T02:58:32.033Z,99665.00
2018-06-11T03:01:12.778Z,99666.00
2018-06-11T03:03:53.137Z,99671.00
2018-06-11T03:06:34.157Z,99670.00
2018-06-11T03:09:14.505Z,99679.00
2018-06-11T03:11:54.899Z,99683.00
2018-06-11T03:14:35.249Z,99682.00
2018-06-11T03:17:15.756Z,99681.00
2018-06-11T03:19:56.118Z,99688.00
2018-06-11T03:22:36.540Z,99688.00
2018-06-11T03:25:17.208Z,99692.00
2018-06-11T03:27:57.684Z,99696.00
2018-06-11T03:30:38.066Z,99698.00
2018-06-11T03:33:18.335Z,99701.00
2018-06-11T03:35:58.866Z,99711.00
2018-06-11T03:38:39.561Z,99698.00
2018-06-11T03:41:20.365Z,99699.00
2018-06-11T03:44:00.688Z,99700.00
2018-06-11T03:46:41.445Z,99698.00
2018-06-11T03:49:21.919Z,99694.00
2018-06-11T03:52:02.755Z,99693.00
2018-06-11T03:54:43.805Z,99688.00
2018-06-11T03:57:24.333Z,99691.00
2018-06-11T04:00:04.835Z,99698.00
2018-06-11T04:02:45.852Z,99705.00
2018-06-11T04:05:26.680Z,99715.00
2018-06-11T04:08:07.344Z,99723.00
2018-06-11T04:10:48.196Z,99720.00
2018-06-11T04:13:28.743Z,99721.00
2018-06-11T04:16:09.040Z,99727.00
2018-06-11T04:18:49.383Z,99722.00
2018-06-11T04:21:29.702Z,99713.00
2018-06-11T04:24:10.478Z,99710.00
2018-06-11T04:26:51.246Z,99716.00
2018-06-11T04:29:32.426Z,99722.00
2018-06-11T04:32:12.767Z,99716.00
2018-06-11T04:34:53.274Z,99716.00
2018-06-11T04:37:33.604Z,99719.00
2018-06-11T04:40:14.393Z,99718.00
2018-06-11T04:42:55.373Z,99718.00
2018-06-11T04:45:36.029Z,99715.00
2018-06-11T04:48:16.325Z,99716.00
2018-06-11T04:50:57.792Z,99721.00
2018-06-11T04:53:38.269Z,99725.00
2018-06-11T04:56:18.940Z,99727.00
2018-06-11T04:58:59.416Z,99725.00
2018-06-11T05:01:39.938Z,99725.00
2018-06-11T05:04:20.392Z,99725.00
2018-06-11T05:07:00.896Z,99720.00
2018-06-11T05:09:41.336Z,99726.00
2018-06-11T05:12:22.028Z,99727.00
2018-06-11T05:15:02.456Z,99721.00
2018-06-11T05:17:43.509Z,99733.00
2018-06-11T05:20:25.114Z,99727.00
2018-06-11T05:23:05.632Z,99729.00
2018-06-11T05:25:46.813Z,99733.00
2018-06-11T05:28:27.213Z,99731.00
2018-06-11T05:31:08.024Z,99729.00
2018-06-11T05:33:48.688Z,99729.00
2018-06-11T05:36:29.104Z,99733.00
2018-06-11T05:39:10.665Z,99737.00
2018-06-11T05:41:51.453Z,99725.00
2018-06-11T05:44:31.750Z,99737.00
2018-06-11T05:47:12.569Z,99733.00
2018-06-11T05:49:53.054Z,99737.00
2018-06-11T05:52:33.905Z,99737.00
2018-06-11T05:55:14.720Z,99736.00
2018-06-11T05:57:55.534Z,99730.00
2018-06-11T06:00:35.867Z,99742.00
2018-06-11T06:03:16.938Z,99741.00
2018-06-11T06:05:57.479Z,99742.00
2018-06-11T06:08:37.994Z,99747.00
2018-06-11T06:11:18.547Z,99743.00
2018-06-11T06:13:58.924Z,99750.00
2018-06-11T06:16:39.776Z,99748.00
2018-06-11T06:19:20.648Z,99752.00
2018-06-11T06:22:01.064Z,99752.00
2018-06-11T06:24:41.425Z,99756.00
2018-06-11T06:27:21.804Z,99757.00
2018-06-11T06:30:01.979Z,99756.00
2018-06-11T06:32:42.481Z,99755.00
2018-06-11T06:35:23.252Z,99743.00
2018-06-11T06:38:04.361Z,99752.00
2018-06-11T06:40:44.718Z,99761.00
2018-06-11T06:43:25.440Z,99759.00
2018-06-11T06:46:05.922Z,99761.00
2018-06-11T06:48:46.424Z,99758.00
2018-06-11T06:51:27.251Z,99752.00
2018-06-11T06:54:07.737Z,99748.00
2018-06-11T06:56:48.424Z,99746.00
2018-06-11T06:59:29.222Z,99745.00
2018-06-11T07:02:09.537Z,99747.00
2018-06-11T07:04:50.159Z,99749.00
2018-06-11T07:07:30.821Z,99739.00
2018-06-11T07:10:11.337Z,99737.00
2018-06-11T07:12:52.231Z,99743.00
2018-06-11T07:15:32.933Z,99738.00
2018-06-11T07:18:13.872Z,99742.00
2018-06-11T07:20:54.413Z,99737.00
2018-06-11T07:23:35.416Z,99731.00
2018-06-11T07:26:15.973Z,99732.00
2018-06-11T07:28:56.736Z,99736.00
2018-06-11T07:31:37.514Z,99735.00
2018-06-11T07:34:18.308Z,99731.00
2018-06-11T07:36:59.333Z,99732.00
2018-06-11T07:39:39.853Z,99721.00
2018-06-11T07:42:20.686Z,99725.00
2018-06-11T07:45:01.394Z,99723.00
2018-06-11T07:47:42.068Z,99725.00
2018-06-11T07:50:22.632Z,99727.00
2018-06-11T07:53:03.584Z,99731.00
2018-06-11T07:55:44.346Z,99723.00
2018-06-11T07:58:26.072Z,99727.00
2018-06-11T08:01:06.993Z,99721.00
2018-06-11T08:03:48.017Z,99721.00
2018-06-11T08:06:28.820Z,99722.00
2018-06-11T08:09:09.397Z,99723.00
2018-06-11T08:11:50.471Z,99719.00
2018-06-11T08:14:30.937Z,99721.00
2018-06-11T08:17:11.439Z,99718.00
2018-06-11T08:19:52.337Z,99722.00
2018-06-11T08:22:32.643Z,99727.00
2018-06-11T08:25:13.197Z,99728.00
2018-06-11T08:27:54.009Z,99734.00
2018-06-11T08:30:34.520Z,99733.00
2018-06-11T08:33:15.173Z,99733.00
2018-06-11T08:35:55.679Z,99733.00
2018-06-11T08:38:36.868Z,99727.00
2018-06-11T08:41:17.396Z,99737.00
2018-06-11T08:43:57.749Z,99737.00
2018-06-11T08:46:38.427Z,99745.00
2018-06-11T08:49:19.095Z,99741.00
2018-06-11T08:52:00.279Z,99746.00
2018-06-11T08:54:41.081Z,99752.00
2018-06-11T08:57:21.840Z,99760.00
2018-06-11T09:00:02.569Z,99767.00
2018-06-11T09:02:43.661Z,99772.00
2018-06-11T09:05:24.289Z,99771.00
2018-06-11T09:08:05.111Z,99773.00
2018-06-11T09:10:45.971Z,99775.00
2018-06-11T09:13:27.024Z,99773.00
2018-06-11T09:16:07.853Z,99775.00
2018-06-11T09:18:48.361Z,99770.00
2018-06-11T09:21:30.966Z,99772.00
2018-06-11T09:24:11.477Z,99774.00
2018-06-11T09:26:51.919Z,99774.00
2018-06-11T09:29:32.943Z,99760.00
2018-06-11T09:32:13.627Z,99759.00
2018-06-11T09:34:54.377Z,99759.00
2018-06-11T09:37:35.296Z,99761.00
2018-06-11T09:40:16.051Z,99763.00
2018-06-11T09:42:57.060Z,99759.00
2018-06-11T09:45:38.049Z,99765.00
2018-06-11T09:48:18.533Z,99765.00
2018-06-11T09:50:58.969Z,99763.00
2018-06-11T09:53:39.864Z,99766.00
2018-06-11T09:56:20.709Z,99760.00
2018-06-11T09:59:01.157Z,99761.00
2018-06-11T10:01:42.337Z,99755.00
2018-06-11T10:04:22.872Z,99761.00
2018-06-11T10:07:03.553Z,99767.00
2018-06-11T10:09:44.437Z,99773.00
2018-06-11T10:12:25.573Z,99761.00
2018-06-11T10:15:06.481Z,99763.00
2018-06-11T10:17:46.823Z,99761.00
2018-06-11T10:20:27.744Z,99763.00
2018-06-11T10:23:08.425Z,99756.00
2018-06-11T10:25:48.789Z,99755.00
2018-06-11T10:28:29.932Z,99755.00
2018-06-11T10:31:10.732Z,99753.00
2018-06-11T10:33:51.161Z,99749.00
2018-06-11T10:36:32.078Z,99753.00
2018-06-11T10:39:13.544Z,99753.00
2018-06-11T10:41:54.096Z,99750.00
2018-06-11T10:44:34.589Z,99753.00
2018-06-11T10:47:14.948Z,99748.00
2018-06-11T10:49:55.964Z,99748.00
2018-06-11T10:52:36.815Z,99752.00
2018-06-11T10:55:17.805Z,99755.00
2018-06-11T10:57:58.894Z,99750.00
2018-06-11T11:00:39.819Z,99764.00
2018-06-11T11:03:20.330Z,99755.00
2018-06-11T11:06:01.352Z,99748.00
2018-06-11T11:08:42.253Z,99742.00
2018-06-11T11:11:23.328Z,99747.00
2018-06-11T11:14:03.975Z,99749.00
2018-06-11T11:16:44.734Z,99748.00
2018-06-11T11:19:25.536Z,99751.00
2018-06-11T11:22:06.007Z,99738.00
2018-06-11T11:24:46.383Z,99735.00
2018-06-11T11:27:26.768Z,99728.00
2018-06-11T11:30:07.510Z,99741.00
2018-06-11T11:32:48.541Z,99745.00
2018-06-11T11:35:29.464Z,99729.00
2018-06-11T11:38:10.339Z,99719.00
2018-06-11T11:40:51.225Z,99714.00
2018-06-11T11:43:32.081Z,99724.00
2018-06-11T11:46:13.593Z,99731.00
2018-06-11T11:48:54.194Z,99722.00
2018-06-11T11:51:34.606Z,99712.00
2018-06-11T11:54:15.486Z,99714.00
2018-06-11T11:56:55.797Z,99710.00
2018-06-11T11:59:36.156Z,99694.00
2018-06-11T12:02:16.804Z,99685.00
2018-06-11T12:04:57.289Z,99680.00
2018-06-11T12:07:37.654Z,99678.00
2018-06-11T12:10:18.757Z,99676.00
2018-06-11T12:12:59.061Z,99675.00
2018-06-11T12:15:39.714Z,99668.00
2018-06-11T12:18:20.773Z,99675.00
2018-06-11T12:21:01.221Z,99676.00
2018-06-11T12:23:41.910Z,99670.00
2018-06-11T12:26:23.190Z,99669.00
2018-06-11T12:29:03.898Z,99667.00
2018-06-11T12:31:44.378Z,99658.00
2018-06-11T12:34:25.212Z,99644.00
2018-06-11T12:37:06.065Z,99635.00
2018-06-11T12:39:46.962Z,99641.00
2018-06-11T12:42:27.826Z,99648.00
2018-06-11T12:45:08.489Z,99629.00
2018-06-11T12:47:49.237Z,99633.00
2018-06-11T12:50:30.108Z,99640.00
2018-06-11T12:53:10.603Z,99621.00
2018-06-11T12:55:51.568Z,99640.00
2018-06-11T12:58:32.408Z,99631.00
2018-06-11T13:01:13.011Z,99631.00
2018-06-11T13:03:54.385Z,99634.00
2018-06-11T13:06:36.304Z,99626.00
2018-06-11T13:09:16.921Z,99618.00
2018-06-11T13:11:57.708Z,99622.00
2018-06-11T13:14:38.245Z,99613.00
2018-06-11T13:17:18.960Z,99603.00
2018-06-11T13:19:59.656Z,99606.00
2018-06-11T13:22:40.273Z,99615.00
2018-06-11T13:25:20.606Z,99599.00
2018-06-11T13:28:01.396Z,99589.00
2018-06-11T13:30:42.413Z,99585.00
2018-06-11T13:33:22.937Z,99576.00
2018-06-11T13:36:03.249Z,99569.00
2018-06-11T13:38:43.701Z,99568.00
2018-06-11T13:41:24.612Z,99579.00
2018-06-11T13:44:05.707Z,99576.00
2018-06-11T13:46:46.172Z,99581.00
2018-06-11T13:49:26.534Z,99563.00
2018-06-11T13:52:07.580Z,99571.00
2018-06-11T13:54:48.065Z,99557.00
2018-06-11T13:57:28.747Z,99547.00
2018-06-11T14:00:09.836Z,99558.00
2018-06-11T14:02:51.044Z,99550.00
2018-06-11T14:05:31.845Z,99543.00
2018-06-11T14:08:12.129Z,99538.00
2018-06-11T14:10:52.608Z,99543.00
2018-06-11T14:13:33.072Z,99545.00
2018-06-11T14:16:14.110Z,99554.00
2018-06-11T14:18:54.595Z,99555.00
2018-06-11T14:21:34.949Z,99557.00
2018-06-11T14:24:15.264Z,99556.00
2018-06-11T14:26:56.393Z,99544.00
2018-06-11T14:29:37.176Z,99551.00
2018-06-11T14:32:17.527Z,99538.00
2018-06-11T14:34:57.954Z,99527.00
2018-06-11T14:37:39.134Z,99522.00
2018-06-11T14:40:19.417Z,99520.00
2018-06-11T14:43:00.297Z,99511.00
2018-06-11T14:45:40.761Z,99501.00
2018-06-11T14:48:21.067Z,99503.00
2018-06-11T14:51:01.613Z,99500.00
2018-06-11T14:53:42.269Z,99493.00
2018-06-11T14:56:23.497Z,99484.00
2018-06-11T14:59:04.296Z,99482.00
2018-06-11T15:01:44.752Z,99475.00
2018-06-11T15:04:25.451Z,99469.00
2018-06-11T15:07:05.900Z,99470.00
2018-06-11T15:09:46.513Z,99469.00
2018-06-11T15:12:27.248Z,99464.00
2018-06-11T15:15:07.976Z,99465.00
2018-06-11T15:17:48.466Z,99455.00
2018-06-11T15:20:29.860Z,99457.00
2018-06-11T15:23:10.975Z,99450.00
2018-06-11T15:25:51.527Z,99454.00
2018-06-11T15:28:31.953Z,99456.00
2018-06-11T15:31:13.136Z,99457.00
2018-06-11T15:33:54.133Z,99462.00
2018-06-11T15:36:34.718Z,99469.00
2018-06-11T15:39:15.161Z,99473.00
2018-06-11T15:41:56.065Z,99478.00
2018-06-11T15:44:37.182Z,99481.00
2018-06-11T15:47:17.712Z,99481.00
2018-06-11T15:49:58.241Z,99482.00
2018-06-11T15:52:38.706Z,99484.00
2018-06-11T15:55:19.008Z,99474.00
2018-06-11T15:57:59.817Z,99476.00
2018-06-11T16:00:40.508Z,99473.00
2018-06-11T16:03:22.220Z,99466.00
2018-06-11T16:06:03.101Z,99458.00
2018-06-11T16:08:43.528Z,99454.00
2018-06-11T16:11:24.206Z,99445.00
2018-06-11T16:14:04.727Z,99442.00
2018-06-11T16:16:45.805Z,99433.00
2018-06-11T16:19:26.792Z,99426.00
2018-06-11T16:22:07.284Z,99421.00
2018-06-11T16:24:47.809Z,99414.00
2018-06-11T16:27:28.249Z,99398.00
2018-06-11T16:30:09.595Z,99392.00
2018-06-11T16:32:50.555Z,99382.00
2018-06-11T16:35:31.330Z,99379.00
2018-06-11T16:38:12.176Z,99358.00
2018-06-11T16:40:53.356Z,99361.00
2018-06-11T16:43:34.134Z,99374.00
2018-06-11T16:46:15.261Z,99378.00
2018-06-11T16:48:55.947Z,99380.00
2018-06-11T16:51:36.616Z,99384.00
2018-06-11T16:54:17.936Z,99382.00
2018-06-11T16:56:59.541Z,99381.00
2018-06-11T16:59:40.608Z,99381.00
2018-06-11T17:02:21.168Z,99372.00
2018-06-11T17:05:02.414Z,99379.00
2018-06-11T17:07:42.732Z,99374.00
2018-06-11T17:10:23.424Z,99379.00
2018-06-11T17:13:04.297Z,99378.00
2018-06-11T17:15:44.732Z,99377.00
2018-06-11T17:18:25.441Z,99372.00
2018-06-11T17:21:06.393Z,99364.00
2018-06-11T17:23:46.871Z,99365.00
2018-06-11T17:26:27.235Z,99359.00
2018-06-11T17:29:08.087Z,99350.00
2018-06-11T17:31:48.948Z,99348.00
2018-06-11T17:34:29.511Z,99345.00
2018-06-11T17:37:10.636Z,99338.00
2018-06-11T17:39:51.195Z,99336.00
2018-06-11T17:42:32.109Z,99336.00
2018-06-11T17:45:12.764Z,99337.00
2018-06-11T17:47:54.038Z,99346.00
2018-06-11T17:50:35.512Z,99345.00
2018-06-11T17:53:16.074Z,99350.00
2018-06-11T17:55:57.013Z,99353.00
2018-06-11T17:58:37.908Z,99349.00
2018-06-11T18:01:18.708Z,99348.00
2018-06-11T18:03:59.177Z,99346.00
2018-06-11T18:06:39.440Z,99348.00
2018-06-11T18:09:20.233Z,99353.00
2018-06-11T18:12:01.315Z,99352.00
2018-06-11T18:14:42.470Z,99363.00
2018-06-11T18:17:23.740Z,99372.00
2018-06-11T18:20:04.289Z,99377.00
2018-06-11T18:22:44.621Z,99382.00
2018-06-11T18:25:25.455Z,99383.00
2018-06-11T18:28:06.056Z,99384.00
2018-06-11T18:30:46.584Z,99388.00
2018-06-11T18:33:27.438Z,99401.00
2018-06-11T18:36:08.134Z,99404.00
2018-06-11T18:38:49.485Z,99399.00
2018-06-11T18:41:30.374Z,99402.00
2018-06-11T18:44:11.197Z,99402.00
2018-06-11T18:46:51.569Z,99401.00
2018-06-11T18:49:32.704Z,99406.00
2018-06-11T18:52:13.509Z,99401.00
2018-06-11T18:54:54.036Z,99398.00
2018-06-11T18:57:34.612Z,99395.00
2018-06-11T19:00:15.368Z,99392.00
2018-06-11T19:02:55.600Z,99384.00
2018-06-11T19:05:36.035Z,99376.00
2018-06-11T19:08:16.522Z,99370.00
2018-06-11T19:10:57.397Z,99360.00
2018-06-11T19:13:37.939Z,99356.00
2018-06-11T19:16:18.462Z,99355.00
2018-06-11T19:18:59.079Z,99357.00
2018-06-11T19:21:40.223Z,99352.00
2018-06-11T19:24:21.026Z,99347.00
2018-06-11T19:27:01.381Z,99338.00
2018-06-11T19:29:42.288Z,99338.00
2018-06-11T19:32:23.325Z,99343.00
2018-06-11T19:35:04.415Z,99341.00
2018-06-11T19:37:45.632Z,99342.00
2018-06-11T19:40:26.272Z,99343.00
2018-06-11T19:43:06.753Z,99342.00
2018-06-11T19:45:47.129Z,99340.00
2018-06-11T19:48:27.926Z,99341.00
2018-06-11T19:51:09.045Z,99344.00
2018-06-11T19:53:50.310Z,99350.00
2018-06-11T19:56:31.181Z,99350.00
2018-06-11T19:59:12.480Z,99353.00
2018-06-11T20:01:53.337Z,99354.00
2018-06-11T20:04:34.215Z,99358.00
2018-06-11T20:07:15.175Z,99367.00
2018-06-11T20:09:55.973Z,99382.00
2018-06-11T20:12:36.288Z,99386.00
2018-06-11T20:15:16.724Z,99396.00
2018-06-11T20:17:57.257Z,99391.00
2018-06-11T20:20:38.035Z,99384.00
2018-06-11T20:23:18.580Z,99388.00
2018-06-11T20:25:59.175Z,99383.00
2018-06-11T20:28:39.556Z,99381.00
2018-06-11T20:31:21.563Z,99380.00
2018-06-11T20:34:02.312Z,99384.00
2018-06-11T20:36:43.635Z,99383.00
2018-06-11T20:39:24.503Z,99387.00
2018-06-11T20:42:05.595Z,99393.00
2018-06-11T20:44:46.181Z,99392.00
2018-06-11T20:47:26.853Z,99385.00
2018-06-11T20:50:07.756Z,99382.00
2018-06-11T20:52:48.692Z,99382.00
2018-06-11T20:55:29.801Z,99384.00
2018-06-11T20:58:10.677Z,99385.00
2018-06-11T21:00:51.003Z,99384.00
2018-06-11T21:03:31.478Z,99382.00
2018-06-11T21:06:12.112Z,99381.00
2018-06-11T21:08:52.547Z,99386.00
2018-06-11T21:11:33.457Z,99383.00
2018-06-11T21:14:14.328Z,99383.00
2018-06-11T21:16:55.469Z,99381.00
2018-06-11T21:19:36.013Z,99381.00
2018-06-11T21:22:16.592Z,99384.00
2018-06-11T21:24:57.686Z,99389.00
2018-06-11T21:27:38.062Z,99386.00
2018-06-11T21:30:18.800Z,99382.00
2018-06-11T21:32:59.180Z,99373.00
2018-06-11T21:35:39.557Z,99372.00
2018-06-11T21:38:19.760Z,99368.00
2018-06-11T21:41:00.235Z,99369.00
2018-06-11T21:43:40.649Z,99371.00
2018-06-11T21:46:21.445Z,99372.00
2018-06-11T21:49:01.920Z,99367.00
2018-06-11T21:51:42.612Z,99373.00
2018-06-11T21:54:23.236Z,99371.00
2018-06-11T21:57:04.241Z,99369.00
2018-06-11T21:59:45.060Z,99365.00
2018-06-11T22:02:25.680Z,99364.00
2018-06-11T22:05:07.317Z,99354.00
2018-06-11T22:07:47.817Z,99352.00
2018-06-11T22:10:28.561Z,99344.00
2018-06-11T22:13:09.487Z,99342.00
2018-06-11T22:15:49.995Z,99339.00
2018-06-11T22:18:31.100Z,99341.00
2018-06-11T22:21:11.951Z,99340.00
2018-06-11T22:23:52.743Z,99341.00
2018-06-11T22:26:33.530Z,99341.00
2018-06-11T22:29:14.212Z,99342.00
2018-06-11T22:31:54.663Z,99353.00
2018-06-11T22:34:35.089Z,99348.00
2018-06-11T22:37:15.412Z,99354.00
2018-06-11T22:39:55.851Z,99356.00
2018-06-11T22:42:36.292Z,99346.00
2018-06-11T22:45:16.766Z,99345.00
2018-06-11T22:47:57.442Z,99343.00
2018-06-11T22:50:38.114Z,99343.00
2018-06-11T22:53:18.508Z,99341.00
2018-06-11T22:55:59.196Z,99344.00
2018-06-11T22:58:39.789Z,99350.00
2018-06-11T23:01:20.730Z,99346.00
2018-06-11T23:04:01.283Z,99350.00
2018-06-11T23:06:41.657Z,99350.00
2018-06-11T23:09:22.024Z,99342.00
2018-06-11T23:12:02.896Z,99342.00
2018-06-11T23:14:43.340Z,99336.00
2018-06-11T23:17:23.737Z,99336.00
2018-06-11T23:20:05.042Z,99334.00
2018-06-11T23:22:45.641Z,99338.00
2018-06-11T23:25:26.480Z,99342.00
2018-06-11T23:28:07.265Z,99340.00
2018-06-11T23:30:48.095Z,99333.00
2018-06-11T23:33:28.423Z,99330.00
2018-06-11T23:36:09.108Z,99330.00
2018-06-11T23:38:49.444Z,99332.00
2018-06-11T23:41:29.984Z,99334.00
2018-06-11T23:44:10.483Z,99336.00
2018-06-11T23:46:51.075Z,99338.00
2018-06-11T23:49:32.102Z,99339.00
2018-06-11T23:52:12.800Z,99336.00
2018-06-11T23:54:53.588Z,99336.00
2018-06-11T23:57:34.108Z,99330.00
